sensor_id;sensor_type;location;lat;lon;timestamp;pressure;altitude;pressure_sealevel;temperature;humidity
59375;BME280;45172;55.006;73.460;2023-06-26T00:01:29;99849.44;;;9.72;nan
59375;BME280;45172;55.006;73.460;2023-06-26T00:04:00;99857.72;;;10.05;nan
59375;BME280;45172;55.006;73.460;2023-06-26T00:06:26;99852.50;;;10.14;nan
59375;BME280;45172;55.006;73.460;2023-06-26T00:08:54;99854.28;;;10.17;nan
59375;BME280;45172;55.006;73.460;2023-06-26T00:11:21;99845.44;;;10.16;nan
59375;BME280;45172;55.006;73.460;2023-06-26T00:13:47;99834.91;;;10.19;nan
59375;BME280;45172;55.006;73.460;2023-06-26T00:16:13;99847.34;;;10.30;nan
59375;BME280;45172;55.006;73.460;2023-06-26T00:18:39;99843.00;;;10.36;nan
59375;BME280;45172;55.006;73.460;2023-06-26T00:21:05;99841.06;;;10.18;nan
59375;BME280;45172;55.006;73.460;2023-06-26T00:23:31;99844.78;;;10.37;nan
59375;BME280;45172;55.006;73.460;2023-06-26T00:25:58;99834.19;;;10.40;nan
59375;BME280;45172;55.006;73.460;2023-06-26T00:28:25;99841.19;;;10.35;nan
59375;BME280;45172;55.006;73.460;2023-06-26T00:30:51;99835.06;;;10.36;nan
59375;BME280;45172;55.006;73.460;2023-06-26T00:33:18;99845.09;;;10.75;nan
59375;BME280;45172;55.006;73.460;2023-06-26T00:35:44;99838.97;;;10.90;nan
59375;BME280;45172;55.006;73.460;2023-06-26T00:38:10;99853.22;;;11.09;nan
59375;BME280;45172;55.006;73.460;2023-06-26T00:40:36;99805.44;;;10.93;nan
59375;BME280;45172;55.006;73.460;2023-06-26T00:43:02;99834.72;;;11.20;nan
59375;BME280;45172;55.006;73.460;2023-06-26T00:45:28;99854.25;;;11.36;nan
59375;BME280;45172;55.006;73.460;2023-06-26T00:47:54;99850.75;;;11.51;nan
59375;BME280;45172;55.006;73.460;2023-06-26T00:50:21;99792.38;;;11.35;nan
59375;BME280;45172;55.006;73.460;2023-06-26T00:52:47;99845.53;;;11.76;nan
59375;BME280;45172;55.006;73.460;2023-06-26T00:55:14;99843.81;;;11.92;nan
59375;BME280;45172;55.006;73.460;2023-06-26T00:57:40;99849.13;;;11.98;nan
59375;BME280;45172;55.006;73.460;2023-06-26T01:00:07;99838.53;;;12.20;nan
59375;BME280;45172;55.006;73.460;2023-06-26T01:02:33;99838.56;;;12.34;nan
59375;BME280;45172;55.006;73.460;2023-06-26T01:05:01;99840.34;;;12.35;nan
59375;BME280;45172;55.006;73.460;2023-06-26T01:07:35;99833.25;;;12.37;nan
59375;BME280;45172;55.006;73.460;2023-06-26T01:10:06;99827.94;;;12.39;nan
59375;BME280;45172;55.006;73.460;2023-06-26T01:12:34;99818.19;;;12.36;nan
59375;BME280;45172;55.006;73.460;2023-06-26T01:15:01;99833.25;;;12.50;nan
59375;BME280;45172;55.006;73.460;2023-06-26T01:17:29;99829.69;;;12.55;nan
59375;BME280;45172;55.006;73.460;2023-06-26T01:20:00;99819.09;;;12.46;nan
59375;BME280;45172;55.006;73.460;2023-06-26T01:22:37;99835.00;;;12.58;nan
59375;BME280;45172;55.006;73.460;2023-06-26T01:27:56;99810.19;;;12.69;nan
59375;BME280;45172;55.006;73.460;2023-06-26T01:30:23;99823.44;;;12.91;nan
59375;BME280;45172;55.006;73.460;2023-06-26T01:32:51;99819.00;;;12.90;nan
59375;BME280;45172;55.006;73.460;2023-06-26T01:35:17;99820.75;;;12.98;nan
59375;BME280;45172;55.006;73.460;2023-06-26T01:37:44;99802.16;;;12.87;nan
59375;BME280;45172;55.006;73.460;2023-06-26T01:40:10;99801.28;;;12.90;nan
59375;BME280;45172;55.006;73.460;2023-06-26T01:42:36;99822.53;;;13.02;nan
59375;BME280;45172;55.006;73.460;2023-06-26T01:45:12;99780.06;;;12.76;nan
59375;BME280;45172;55.006;73.460;2023-06-26T01:47:48;99778.28;;;12.77;nan
59375;BME280;45172;55.006;73.460;2023-06-26T01:50:24;99812.78;;;12.94;nan
59375;BME280;45172;55.006;73.460;2023-06-26T01:53:15;99819.00;;;12.93;nan
59375;BME280;45172;55.006;73.460;2023-06-26T01:55:55;99810.13;;;12.94;nan
59375;BME280;45172;55.006;73.460;2023-06-26T01:58:27;99791.53;;;12.87;nan
59375;BME280;45172;55.006;73.460;2023-06-26T02:00:54;99763.25;;;12.71;nan
59375;BME280;45172;55.006;73.460;2023-06-26T02:03:20;99816.31;;;13.02;nan
59375;BME280;45172;55.006;73.460;2023-06-26T02:05:46;99816.28;;;13.07;nan
59375;BME280;45172;55.006;73.460;2023-06-26T02:08:14;99804.78;;;13.06;nan
59375;BME280;45172;55.006;73.460;2023-06-26T02:10:41;99802.09;;;13.14;nan
59375;BME280;45172;55.006;73.460;2023-06-26T02:13:07;99805.69;;;12.97;nan
59375;BME280;45172;55.006;73.460;2023-06-26T02:15:32;99810.91;;;13.22;nan
59375;BME280;45172;55.006;73.460;2023-06-26T02:17:59;99810.88;;;13.36;nan
59375;BME280;45172;55.006;73.460;2023-06-26T02:20:25;99787.84;;;13.34;nan
59375;BME280;45172;55.006;73.460;2023-06-26T02:22:50;99798.38;;;13.59;nan
59375;BME280;45172;55.006;73.460;2023-06-26T02:25:17;99802.72;;;13.74;nan
59375;BME280;45172;55.006;73.460;2023-06-26T02:27:44;99802.63;;;13.84;nan
59375;BME280;45172;55.006;73.460;2023-06-26T02:30:10;99802.56;;;13.94;nan
59375;BME280;45172;55.006;73.460;2023-06-26T02:32:36;99788.34;;;13.98;nan
59375;BME280;45172;55.006;73.460;2023-06-26T02:35:02;99782.97;;;14.06;nan
59375;BME280;45172;55.006;73.460;2023-06-26T02:37:28;99791.72;;;14.25;nan
59375;BME280;45172;55.006;73.460;2023-06-26T02:39:56;99793.38;;;14.34;nan
59375;BME280;45172;55.006;73.460;2023-06-26T02:42:22;99778.16;;;14.47;nan
59375;BME280;45172;55.006;73.460;2023-06-26T02:44:48;99782.41;;;14.68;nan
59375;BME280;45172;55.006;73.460;2023-06-26T02:47:14;99738.81;;;14.71;nan
59375;BME280;45172;55.006;73.460;2023-06-26T02:49:40;99772.75;;;15.36;nan
59375;BME280;45172;55.006;73.460;2023-06-26T02:52:06;99698.19;;;15.25;nan
59375;BME280;45172;55.006;73.460;2023-06-26T02:54:32;99762.13;;;15.96;nan
59375;BME280;45172;55.006;73.460;2023-06-26T02:56:58;99759.81;;;16.27;nan
59375;BME280;45172;55.006;73.460;2023-06-26T02:59:25;99760.31;;;16.50;nan
59375;BME280;45172;55.006;73.460;2023-06-26T03:01:52;99758.88;;;16.79;nan
59375;BME280;45172;55.006;73.460;2023-06-26T03:04:18;99714.00;;;16.95;nan
59375;BME280;45172;55.006;73.460;2023-06-26T03:06:44;99753.00;;;17.48;nan
59375;BME280;45172;55.006;73.460;2023-06-26T03:09:10;99748.91;;;17.71;nan
59375;BME280;45172;55.006;73.460;2023-06-26T03:11:36;99746.41;;;18.01;nan
59375;BME280;45172;55.006;73.460;2023-06-26T03:14:02;99712.19;;;18.14;nan
59375;BME280;45172;55.006;73.460;2023-06-26T03:16:28;99745.06;;;18.55;nan
59375;BME280;45172;55.006;73.460;2023-06-26T03:18:54;99737.44;;;18.71;nan
59375;BME280;45172;55.006;73.460;2023-06-26T03:21:20;99707.69;;;18.81;nan
59375;BME280;45172;55.006;73.460;2023-06-26T03:23:46;99746.94;;;19.16;nan
59375;BME280;45172;55.006;73.460;2023-06-26T03:26:12;99729.72;;;19.24;nan
59375;BME280;45172;55.006;73.460;2023-06-26T03:28:40;99719.44;;;19.38;nan
59375;BME280;45172;55.006;73.460;2023-06-26T03:31:07;99719.00;;;19.52;nan
59375;BME280;45172;55.006;73.460;2023-06-26T03:33:33;99716.03;;;19.62;nan
59375;BME280;45172;55.006;73.460;2023-06-26T03:35:59;99726.47;;;19.71;nan
59375;BME280;45172;55.006;73.460;2023-06-26T03:38:25;99732.44;;;19.81;nan
59375;BME280;45172;55.006;73.460;2023-06-26T03:40:51;99723.16;;;19.91;nan
59375;BME280;45172;55.006;73.460;2023-06-26T03:43:18;99703.97;;;20.02;nan
59375;BME280;45172;55.006;73.460;2023-06-26T03:45:44;99720.28;;;20.24;nan
59375;BME280;45172;55.006;73.460;2023-06-26T03:48:10;99716.44;;;20.32;nan
59375;BME280;45172;55.006;73.460;2023-06-26T03:50:36;99712.66;;;20.37;nan
59375;BME280;45172;55.006;73.460;2023-06-26T03:53:02;99711.66;;;20.40;nan
59375;BME280;45172;55.006;73.460;2023-06-26T03:55:28;99704.31;;;20.45;nan
59375;BME280;45172;55.006;73.460;2023-06-26T03:57:54;99710.94;;;20.60;nan
59375;BME280;45172;55.006;73.460;2023-06-26T04:00:20;99709.78;;;20.67;nan
59375;BME280;45172;55.006;73.460;2023-06-26T04:02:46;99704.78;;;20.82;nan
59375;BME280;45172;55.006;73.460;2023-06-26T04:05:12;99706.25;;;20.91;nan
59375;BME280;45172;55.006;73.460;2023-06-26T04:07:40;99696.69;;;21.07;nan
59375;BME280;45172;55.006;73.460;2023-06-26T04:10:06;99692.31;;;21.27;nan
59375;BME280;45172;55.006;73.460;2023-06-26T04:12:36;99690.00;;;21.40;nan
59375;BME280;45172;55.006;73.460;2023-06-26T04:15:02;99687.13;;;21.45;nan
59375;BME280;45172;55.006;73.460;2023-06-26T04:17:28;99692.16;;;21.54;nan
59375;BME280;45172;55.006;73.460;2023-06-26T04:19:55;99685.41;;;21.66;nan
59375;BME280;45172;55.006;73.460;2023-06-26T04:22:21;99687.78;;;21.74;nan
59375;BME280;45172;55.006;73.460;2023-06-26T04:24:47;99686.94;;;21.73;nan
59375;BME280;45172;55.006;73.460;2023-06-26T04:27:12;99686.78;;;21.76;nan
59375;BME280;45172;55.006;73.460;2023-06-26T04:29:42;99675.56;;;21.87;nan
59375;BME280;45172;55.006;73.460;2023-06-26T04:32:09;99669.56;;;22.01;nan
59375;BME280;45172;55.006;73.460;2023-06-26T04:34:35;99669.84;;;22.16;nan
59375;BME280;45172;55.006;73.460;2023-06-26T04:37:02;99670.47;;;22.23;nan
59375;BME280;45172;55.006;73.460;2023-06-26T04:39:30;99661.09;;;22.31;nan
59375;BME280;45172;55.006;73.460;2023-06-26T04:41:56;99656.84;;;22.47;nan
59375;BME280;45172;55.006;73.460;2023-06-26T04:44:22;99659.00;;;22.59;nan
59375;BME280;45172;55.006;73.460;2023-06-26T04:46:48;99656.66;;;22.51;nan
59375;BME280;45172;55.006;73.460;2023-06-26T04:49:15;99621.25;;;22.38;nan
59375;BME280;45172;55.006;73.460;2023-06-26T04:51:43;99649.81;;;22.63;nan
59375;BME280;45172;55.006;73.460;2023-06-26T04:54:10;99639.03;;;22.63;nan
59375;BME280;45172;55.006;73.460;2023-06-26T04:56:37;99634.59;;;22.81;nan
59375;BME280;45172;55.006;73.460;2023-06-26T04:59:05;99637.16;;;22.84;nan
59375;BME280;45172;55.006;73.460;2023-06-26T05:01:32;99625.69;;;22.79;nan
59375;BME280;45172;55.006;73.460;2023-06-26T05:04:01;99630.16;;;22.80;nan
59375;BME280;45172;55.006;73.460;2023-06-26T05:06:28;99617.56;;;22.79;nan
59375;BME280;45172;55.006;73.460;2023-06-26T05:08:54;99626.72;;;22.77;nan
59375;BME280;45172;55.006;73.460;2023-06-26T05:11:20;99631.06;;;22.79;nan
59375;BME280;45172;55.006;73.460;2023-06-26T05:13:46;99626.22;;;22.88;nan
59375;BME280;45172;55.006;73.460;2023-06-26T05:16:12;99611.91;;;22.85;nan
59375;BME280;45172;55.006;73.460;2023-06-26T05:18:38;99619.56;;;22.95;nan
59375;BME280;45172;55.006;73.460;2023-06-26T05:21:05;99626.28;;;22.86;nan
59375;BME280;45172;55.006;73.460;2023-06-26T05:23:32;99623.72;;;22.83;nan
59375;BME280;45172;55.006;73.460;2023-06-26T05:25:58;99617.44;;;22.82;nan
59375;BME280;45172;55.006;73.460;2023-06-26T05:28:25;99615.84;;;22.97;nan
59375;BME280;45172;55.006;73.460;2023-06-26T05:30:53;99618.53;;;23.17;nan
59375;BME280;45172;55.006;73.460;2023-06-26T05:33:21;99613.34;;;23.31;nan
59375;BME280;45172;55.006;73.460;2023-06-26T05:35:51;99610.69;;;23.49;nan
59375;BME280;45172;55.006;73.460;2023-06-26T05:38:18;99609.03;;;23.64;nan
59375;BME280;45172;55.006;73.460;2023-06-26T05:40:44;99599.59;;;23.73;nan
59375;BME280;45172;55.006;73.460;2023-06-26T05:43:13;99600.22;;;23.78;nan
59375;BME280;45172;55.006;73.460;2023-06-26T05:45:40;99580.69;;;23.73;nan
59375;BME280;45172;55.006;73.460;2023-06-26T05:48:06;99591.00;;;23.82;nan
59375;BME280;45172;55.006;73.460;2023-06-26T05:50:33;99599.72;;;23.87;nan
59375;BME280;45172;55.006;73.460;2023-06-26T05:53:00;99598.56;;;23.93;nan
59375;BME280;45172;55.006;73.460;2023-06-26T05:55:29;99600.94;;;23.99;nan
59375;BME280;45172;55.006;73.460;2023-06-26T05:57:58;99594.34;;;24.05;nan
59375;BME280;45172;55.006;73.460;2023-06-26T06:00:26;99591.63;;;24.05;nan
59375;BME280;45172;55.006;73.460;2023-06-26T06:02:52;99591.69;;;24.03;nan
59375;BME280;45172;55.006;73.460;2023-06-26T06:05:22;99582.22;;;23.94;nan
59375;BME280;45172;55.006;73.460;2023-06-26T06:07:49;99591.16;;;23.97;nan
59375;BME280;45172;55.006;73.460;2023-06-26T06:10:16;99564.81;;;23.83;nan
59375;BME280;45172;55.006;73.460;2023-06-26T06:12:42;99588.34;;;23.98;nan
59375;BME280;45172;55.006;73.460;2023-06-26T06:15:08;99585.28;;;24.06;nan
59375;BME280;45172;55.006;73.460;2023-06-26T06:17:34;99567.84;;;24.12;nan
59375;BME280;45172;55.006;73.460;2023-06-26T06:20:00;99582.81;;;24.19;nan
59375;BME280;45172;55.006;73.460;2023-06-26T06:22:26;99560.78;;;24.09;nan
59375;BME280;45172;55.006;73.460;2023-06-26T06:24:53;99581.00;;;24.19;nan
59375;BME280;45172;55.006;73.460;2023-06-26T06:27:18;99571.53;;;24.11;nan
59375;BME280;45172;55.006;73.460;2023-06-26T06:29:44;99566.41;;;24.04;nan
59375;BME280;45172;55.006;73.460;2023-06-26T06:32:11;99545.50;;;23.90;nan
59375;BME280;45172;55.006;73.460;2023-06-26T06:34:37;99573.97;;;23.98;nan
59375;BME280;45172;55.006;73.460;2023-06-26T06:37:03;99569.13;;;23.87;nan
59375;BME280;45172;55.006;73.460;2023-06-26T06:39:29;99566.56;;;23.84;nan
59375;BME280;45172;55.006;73.460;2023-06-26T06:41:56;99567.69;;;23.79;nan
59375;BME280;45172;55.006;73.460;2023-06-26T06:44:21;99555.75;;;23.66;nan
59375;BME280;45172;55.006;73.460;2023-06-26T06:46:49;99565.56;;;23.69;nan
59375;BME280;45172;55.006;73.460;2023-06-26T06:49:15;99552.91;;;23.69;nan
59375;BME280;45172;55.006;73.460;2023-06-26T06:51:41;99554.09;;;23.63;nan
59375;BME280;45172;55.006;73.460;2023-06-26T06:54:07;99543.75;;;23.54;nan
59375;BME280;45172;55.006;73.460;2023-06-26T06:56:33;99557.91;;;23.59;nan
59375;BME280;45172;55.006;73.460;2023-06-26T06:58:59;99556.78;;;23.46;nan
59375;BME280;45172;55.006;73.460;2023-06-26T07:01:25;99552.00;;;23.33;nan
59375;BME280;45172;55.006;73.460;2023-06-26T07:03:51;99552.59;;;23.21;nan
59375;BME280;45172;55.006;73.460;2023-06-26T07:06:17;99556.69;;;23.10;nan
59375;BME280;45172;55.006;73.460;2023-06-26T07:08:43;99544.84;;;22.95;nan
59375;BME280;45172;55.006;73.460;2023-06-26T07:11:09;99554.19;;;22.88;nan
59375;BME280;45172;55.006;73.460;2023-06-26T07:13:35;99534.28;;;22.71;nan
59375;BME280;45172;55.006;73.460;2023-06-26T07:16:02;99538.16;;;22.66;nan
59375;BME280;45172;55.006;73.460;2023-06-26T07:18:27;99532.09;;;22.61;nan
59375;BME280;45172;55.006;73.460;2023-06-26T07:20:54;99526.84;;;22.57;nan
59375;BME280;45172;55.006;73.460;2023-06-26T07:23:20;99525.81;;;22.60;nan
59375;BME280;45172;55.006;73.460;2023-06-26T07:25:46;99519.78;;;22.55;nan
59375;BME280;45172;55.006;73.460;2023-06-26T07:28:13;99521.78;;;22.50;nan
59375;BME280;45172;55.006;73.460;2023-06-26T07:30:40;99503.09;;;22.45;nan
59375;BME280;45172;55.006;73.460;2023-06-26T07:33:06;99524.63;;;22.47;nan
59375;BME280;45172;55.006;73.460;2023-06-26T07:35:33;99514.91;;;22.42;nan
59375;BME280;45172;55.006;73.460;2023-06-26T07:37:59;99517.59;;;22.42;nan
59375;BME280;45172;55.006;73.460;2023-06-26T07:40:27;99503.88;;;22.28;nan
59375;BME280;45172;55.006;73.460;2023-06-26T07:42:55;99505.84;;;22.24;nan
59375;BME280;45172;55.006;73.460;2023-06-26T07:45:21;99497.63;;;22.08;nan
59375;BME280;45172;55.006;73.460;2023-06-26T07:47:47;99497.91;;;22.02;nan
59375;BME280;45172;55.006;73.460;2023-06-26T07:50:13;99496.34;;;21.96;nan
59375;BME280;45172;55.006;73.460;2023-06-26T07:52:45;99491.66;;;21.81;nan
59375;BME280;45172;55.006;73.460;2023-06-26T07:55:11;99495.13;;;21.62;nan
59375;BME280;45172;55.006;73.460;2023-06-26T07:57:37;99512.09;;;21.64;nan
59375;BME280;45172;55.006;73.460;2023-06-26T08:00:03;99516.41;;;21.47;nan
59375;BME280;45172;55.006;73.460;2023-06-26T08:02:33;99505.63;;;21.04;nan
59375;BME280;45172;55.006;73.460;2023-06-26T08:04:59;99529.88;;;20.80;nan
59375;BME280;45172;55.006;73.460;2023-06-26T08:07:25;99526.72;;;20.23;nan
59375;BME280;45172;55.006;73.460;2023-06-26T08:09:51;99550.47;;;19.84;nan
59375;BME280;45172;55.006;73.460;2023-06-26T08:12:17;99567.94;;;19.46;nan
59375;BME280;45172;55.006;73.460;2023-06-26T08:14:44;99585.72;;;18.93;nan
59375;BME280;45172;55.006;73.460;2023-06-26T08:17:10;99627.56;;;18.37;nan
59375;BME280;45172;55.006;73.460;2023-06-26T08:19:37;99637.50;;;17.63;nan
59375;BME280;45172;55.006;73.460;2023-06-26T08:22:03;99634.06;;;17.20;nan
59375;BME280;45172;55.006;73.460;2023-06-26T08:24:29;99614.13;;;16.93;nan
59375;BME280;45172;55.006;73.460;2023-06-26T08:26:55;99597.69;;;16.70;nan
59375;BME280;45172;55.006;73.460;2023-06-26T08:29:21;99611.94;;;16.71;nan
59375;BME280;45172;55.006;73.460;2023-06-26T08:31:47;99618.47;;;16.57;nan
59375;BME280;45172;55.006;73.460;2023-06-26T08:34:13;99625.59;;;16.59;nan
59375;BME280;45172;55.006;73.460;2023-06-26T08:36:39;99617.66;;;16.54;nan
59375;BME280;45172;55.006;73.460;2023-06-26T08:39:06;99628.25;;;16.59;nan
59375;BME280;45172;55.006;73.460;2023-06-26T08:41:34;99614.09;;;16.53;nan
59375;BME280;45172;55.006;73.460;2023-06-26T08:44:00;99633.28;;;16.74;nan
59375;BME280;45172;55.006;73.460;2023-06-26T08:46:28;99582.81;;;16.59;nan
59375;BME280;45172;55.006;73.460;2023-06-26T08:49:02;99505.84;;;16.32;nan
59375;BME280;45172;55.006;73.460;2023-06-26T08:51:33;99539.09;;;16.61;nan
59375;BME280;45172;55.006;73.460;2023-06-26T08:54:07;99543.31;;;16.70;nan
59375;BME280;45172;55.006;73.460;2023-06-26T08:56:41;99559.19;;;16.79;nan
59375;BME280;45172;55.006;73.460;2023-06-26T08:59:09;99546.50;;;16.88;nan
59375;BME280;45172;55.006;73.460;2023-06-26T09:01:40;99549.56;;;17.11;nan
59375;BME280;45172;55.006;73.460;2023-06-26T09:04:07;99548.13;;;17.33;nan
59375;BME280;45172;55.006;73.460;2023-06-26T09:06:33;99531.84;;;17.42;nan
59375;BME280;45172;55.006;73.460;2023-06-26T09:08:59;99518.25;;;17.50;nan
59375;BME280;45172;55.006;73.460;2023-06-26T09:11:25;99528.22;;;17.78;nan
59375;BME280;45172;55.006;73.460;2023-06-26T09:13:52;99526.91;;;17.93;nan
59375;BME280;45172;55.006;73.460;2023-06-26T09:16:24;99525.81;;;18.00;nan
59375;BME280;45172;55.006;73.460;2023-06-26T09:18:52;99529.06;;;18.13;nan
59375;BME280;45172;55.006;73.460;2023-06-26T09:21:18;99490.84;;;18.06;nan
59375;BME280;45172;55.006;73.460;2023-06-26T09:23:45;99527.38;;;18.41;nan
59375;BME280;45172;55.006;73.460;2023-06-26T09:26:11;99516.16;;;18.56;nan
59375;BME280;45172;55.006;73.460;2023-06-26T09:28:37;99514.25;;;18.61;nan
59375;BME280;45172;55.006;73.460;2023-06-26T09:31:07;99506.56;;;18.78;nan
59375;BME280;45172;55.006;73.460;2023-06-26T09:33:34;99517.41;;;19.03;nan
59375;BME280;45172;55.006;73.460;2023-06-26T09:36:08;99515.03;;;19.21;nan
59375;BME280;45172;55.006;73.460;2023-06-26T09:38:37;99501.88;;;19.40;nan
59375;BME280;45172;55.006;73.460;2023-06-26T09:41:04;99502.88;;;19.63;nan
59375;BME280;45172;55.006;73.460;2023-06-26T09:43:30;99482.78;;;19.49;nan
59375;BME280;45172;55.006;73.460;2023-06-26T09:45:57;99501.56;;;19.49;nan
59375;BME280;45172;55.006;73.460;2023-06-26T09:48:24;99487.63;;;19.38;nan
59375;BME280;45172;55.006;73.460;2023-06-26T09:50:51;99495.63;;;19.39;nan
59375;BME280;45172;55.006;73.460;2023-06-26T09:53:17;99478.44;;;19.45;nan
59375;BME280;45172;55.006;73.460;2023-06-26T09:55:44;99470.59;;;19.39;nan
59375;BME280;45172;55.006;73.460;2023-06-26T09:58:11;99466.16;;;19.38;nan
59375;BME280;45172;55.006;73.460;2023-06-26T10:00:41;99465.97;;;19.42;nan
59375;BME280;45172;55.006;73.460;2023-06-26T10:03:11;99434.91;;;19.35;nan
59375;BME280;45172;55.006;73.460;2023-06-26T10:05:40;99438.03;;;19.48;nan
59375;BME280;45172;55.006;73.460;2023-06-26T10:08:07;99435.88;;;19.58;nan
59375;BME280;45172;55.006;73.460;2023-06-26T10:10:36;99424.47;;;19.77;nan
59375;BME280;45172;55.006;73.460;2023-06-26T10:13:16;99429.31;;;19.91;nan
59375;BME280;45172;55.006;73.460;2023-06-26T10:15:46;99427.19;;;20.01;nan
59375;BME280;45172;55.006;73.460;2023-06-26T10:18:13;99424.38;;;20.04;nan
59375;BME280;45172;55.006;73.460;2023-06-26T10:20:42;99431.28;;;20.11;nan
59375;BME280;45172;55.006;73.460;2023-06-26T10:23:11;99430.88;;;20.22;nan
59375;BME280;45172;55.006;73.460;2023-06-26T10:25:41;99418.13;;;20.27;nan
59375;BME280;45172;55.006;73.460;2023-06-26T10:28:10;99403.97;;;20.22;nan
59375;BME280;45172;55.006;73.460;2023-06-26T10:30:39;99403.41;;;20.36;nan
59375;BME280;45172;55.006;73.460;2023-06-26T10:33:06;99387.56;;;20.30;nan
59375;BME280;45172;55.006;73.460;2023-06-26T10:35:33;99401.56;;;20.38;nan
59375;BME280;45172;55.006;73.460;2023-06-26T10:38:03;99387.47;;;20.31;nan
59375;BME280;45172;55.006;73.460;2023-06-26T10:40:46;99387.22;;;20.37;nan
59375;BME280;45172;55.006;73.460;2023-06-26T10:43:14;99378.72;;;20.48;nan
59375;BME280;45172;55.006;73.460;2023-06-26T10:45:48;99390.75;;;20.83;nan
59375;BME280;45172;55.006;73.460;2023-06-26T10:48:20;99388.97;;;20.83;nan
59375;BME280;45172;55.006;73.460;2023-06-26T10:50:48;99337.03;;;20.59;nan
59375;BME280;45172;55.006;73.460;2023-06-26T10:56:03;99368.13;;;20.66;nan
59375;BME280;45172;55.006;73.460;2023-06-26T11:03:46;99364.66;;;20.42;nan
59375;BME280;45172;55.006;73.460;2023-06-26T11:06:14;99360.91;;;20.23;nan
59375;BME280;45172;55.006;73.460;2023-06-26T11:14:24;99320.50;;;20.25;nan
59375;BME280;45172;55.006;73.460;2023-06-26T11:16:51;99345.69;;;20.45;nan
59375;BME280;45172;55.006;73.460;2023-06-26T11:19:18;99327.28;;;20.56;nan
59375;BME280;45172;55.006;73.460;2023-06-26T11:21:45;99307.66;;;20.54;nan
59375;BME280;45172;55.006;73.460;2023-06-26T11:24:12;99322.13;;;20.72;nan
59375;BME280;45172;55.006;73.460;2023-06-26T11:26:40;99313.75;;;20.80;nan
59375;BME280;45172;55.006;73.460;2023-06-26T11:29:06;99286.94;;;20.77;nan
59375;BME280;45172;55.006;73.460;2023-06-26T11:31:37;99314.69;;;21.00;nan
59375;BME280;45172;55.006;73.460;2023-06-26T11:34:06;99286.31;;;20.92;nan
59375;BME280;45172;55.006;73.460;2023-06-26T11:36:37;99297.75;;;20.98;nan
59375;BME280;45172;55.006;73.460;2023-06-26T11:39:05;99287.09;;;20.94;nan
59375;BME280;45172;55.006;73.460;2023-06-26T11:41:33;99279.91;;;20.95;nan
59375;BME280;45172;55.006;73.460;2023-06-26T11:44:18;99255.16;;;20.87;nan
59375;BME280;45172;55.006;73.460;2023-06-26T11:46:46;99264.66;;;20.96;nan
59375;BME280;45172;55.006;73.460;2023-06-26T11:49:12;99263.22;;;21.07;nan
59375;BME280;45172;55.006;73.460;2023-06-26T11:51:38;99252.31;;;21.11;nan
59375;BME280;45172;55.006;73.460;2023-06-26T11:54:06;99234.84;;;21.00;nan
59375;BME280;45172;55.006;73.460;2023-06-26T11:56:32;99240.47;;;21.15;nan
59375;BME280;45172;55.006;73.460;2023-06-26T11:59:00;99246.69;;;21.15;nan
59375;BME280;45172;55.006;73.460;2023-06-26T12:01:32;99247.66;;;21.14;nan
59375;BME280;45172;55.006;73.460;2023-06-26T12:04:00;99243.22;;;21.13;nan
59375;BME280;45172;55.006;73.460;2023-06-26T12:06:30;99199.97;;;20.97;nan
59375;BME280;45172;55.006;73.460;2023-06-26T12:08:59;99209.06;;;21.14;nan
59375;BME280;45172;55.006;73.460;2023-06-26T12:11:27;99218.47;;;21.24;nan
59375;BME280;45172;55.006;73.460;2023-06-26T12:13:54;99215.78;;;21.24;nan
59375;BME280;45172;55.006;73.460;2023-06-26T12:16:21;99193.81;;;21.14;nan
59375;BME280;45172;55.006;73.460;2023-06-26T12:18:47;99197.38;;;21.15;nan
59375;BME280;45172;55.006;73.460;2023-06-26T12:24:00;99203.84;;;21.30;nan
59375;BME280;45172;55.006;73.460;2023-06-26T12:26:27;99185.38;;;21.22;nan
59375;BME280;45172;55.006;73.460;2023-06-26T12:29:05;99176.19;;;21.26;nan
59375;BME280;45172;55.006;73.460;2023-06-26T12:31:33;99156.84;;;21.18;nan
59375;BME280;45172;55.006;73.460;2023-06-26T12:34:00;99177.41;;;21.38;nan
59375;BME280;45172;55.006;73.460;2023-06-26T12:36:27;99161.78;;;21.27;nan
59375;BME280;45172;55.006;73.460;2023-06-26T12:38:54;99195.81;;;21.47;nan
59375;BME280;45172;55.006;73.460;2023-06-26T12:41:24;99185.28;;;21.43;nan
59375;BME280;45172;55.006;73.460;2023-06-26T12:43:55;99175.75;;;21.35;nan
59375;BME280;45172;55.006;73.460;2023-06-26T12:46:33;99179.88;;;21.43;nan
59375;BME280;45172;55.006;73.460;2023-06-26T12:49:00;99175.47;;;21.42;nan
59375;BME280;45172;55.006;73.460;2023-06-26T12:51:27;99173.56;;;21.44;nan
59375;BME280;45172;55.006;73.460;2023-06-26T12:53:54;99179.09;;;21.41;nan
59375;BME280;45172;55.006;73.460;2023-06-26T12:56:20;99108.38;;;20.99;nan
59375;BME280;45172;55.006;73.460;2023-06-26T12:58:47;99122.72;;;20.99;nan
59375;BME280;45172;55.006;73.460;2023-06-26T13:01:13;99098.66;;;20.75;nan
59375;BME280;45172;55.006;73.460;2023-06-26T13:03:42;99156.25;;;20.92;nan
59375;BME280;45172;55.006;73.460;2023-06-26T13:06:08;99157.31;;;20.88;nan
59375;BME280;45172;55.006;73.460;2023-06-26T13:08:35;99070.13;;;20.33;nan
59375;BME280;45172;55.006;73.460;2023-06-26T13:11:06;99086.63;;;20.44;nan
59375;BME280;45172;55.006;73.460;2023-06-26T13:13:32;99046.47;;;20.20;nan
59375;BME280;45172;55.006;73.460;2023-06-26T13:15:59;99079.78;;;20.37;nan
59375;BME280;45172;55.006;73.460;2023-06-26T13:18:25;99061.78;;;20.18;nan
59375;BME280;45172;55.006;73.460;2023-06-26T13:20:51;99070.00;;;20.15;nan
59375;BME280;45172;55.006;73.460;2023-06-26T13:23:17;99077.19;;;20.15;nan
59375;BME280;45172;55.006;73.460;2023-06-26T13:25:45;99147.13;;;20.55;nan
59375;BME280;45172;55.006;73.460;2023-06-26T13:28:11;99036.19;;;19.89;nan
59375;BME280;45172;55.006;73.460;2023-06-26T13:30:38;98989.25;;;19.56;nan